Time;durP1;ratioP1;P1;durP2;ratioP2;P2;SDS_P1;SDS_P2;PMS_P1;PMS_P2;Temp;Humidity;BMP_temperature;BMP_pressure;BME280_temperature;BME280_humidity;BME280_pressure;Samples;Min_cycle;Max_cycle;Signal;HPM_P1;HPM_P2
2023/04/02 00:00:45;;;;;;;6.10;1.50;;;7.90;99.90;;;;;;5070947;28;20053;-88
2023/04/02 00:03:11;;;;;;;4.55;1.50;;;7.90;99.90;;;;;;5052089;28;20047;-87
2023/04/02 00:05:49;;;;;;;3.45;1.30;;;7.90;99.90;;;;;;5048292;28;20079;-89
2023/04/02 00:08:18;;;;;;;3.05;1.13;;;7.90;99.90;;;;;;5045325;28;20770;-88
2023/04/02 00:10:45;;;;;;;3.70;1.00;;;7.90;99.90;;;;;;5045028;28;20117;-90
2023/04/02 00:13:12;;;;;;;4.45;1.58;;;7.80;99.90;;;;;;5044712;28;20048;-87
2023/04/02 00:15:39;;;;;;;6.63;1.27;;;7.80;99.90;;;;;;5060518;28;20134;-89
2023/04/02 00:20:52;;;;;;;3.50;1.30;;;7.70;99.90;;;;;;5060702;28;20044;-91
2023/04/02 00:23:19;;;;;;;4.32;1.52;;;7.70;99.90;;;;;;5043731;28;20040;-90
2023/04/02 00:25:46;;;;;;;4.72;1.45;;;7.80;99.90;;;;;;5065681;28;20115;-89
2023/04/02 00:28:15;;;;;;;4.68;1.60;;;7.80;99.90;;;;;;5064081;28;20469;-91
2023/04/02 00:30:42;;;;;;;4.07;1.60;;;7.80;99.90;;;;;;5063844;28;20044;-88
2023/04/02 00:33:08;;;;;;;4.45;1.45;;;7.80;99.90;;;;;;5064154;28;20040;-88
2023/04/02 00:35:35;;;;;;;3.05;1.35;;;7.80;99.90;;;;;;5079883;28;20059;-91
2023/04/02 00:40:50;;;;;;;4.28;1.42;;;7.70;99.90;;;;;;5080649;28;20044;-90
2023/04/02 00:43:17;;;;;;;5.45;1.17;;;7.70;99.90;;;;;;5063650;28;20086;-89
2023/04/02 00:45:49;;;;;;;4.70;1.38;;;7.80;99.90;;;;;;5079719;28;20416;-91
2023/04/02 00:51:21;;;;;;;3.58;1.15;;;7.70;99.90;;;;;;5080685;28;20054;-87
2023/04/02 00:53:48;;;;;;;3.08;1.20;;;7.70;99.90;;;;;;5063937;28;20151;-90
2023/04/02 00:59:05;;;;;;;4.65;1.35;;;7.60;99.90;;;;;;5080247;28;20441;-91
2023/04/02 01:01:33;;;;;;;3.33;1.20;;;7.60;99.90;;;;;;5080007;28;20145;-91
2023/04/02 01:04:01;;;;;;;5.15;1.30;;;7.60;99.90;;;;;;5079900;28;20048;-89
2023/04/02 01:06:30;;;;;;;2.13;1.00;;;7.70;99.90;;;;;;5080871;28;20128;-88
2023/04/02 01:08:56;;;;;;;3.47;1.30;;;7.70;99.90;;;;;;5079771;28;20105;-92
2023/04/02 01:11:23;;;;;;;3.88;1.40;;;7.70;99.90;;;;;;5063209;28;20113;-87
2023/04/02 01:13:50;;;;;;;3.55;1.50;;;7.70;99.90;;;;;;5080091;28;20062;-87
2023/04/02 01:19:04;;;;;;;4.60;1.70;;;7.70;99.90;;;;;;5079887;28;20040;-91
2023/04/02 01:21:31;;;;;;;6.88;1.50;;;7.70;99.90;;;;;;5079487;28;20040;-88
2023/04/02 01:23:58;;;;;;;3.78;1.48;;;7.70;99.90;;;;;;5062584;28;20090;-88
2023/04/02 01:29:54;;;;;;;3.40;1.23;;;7.60;99.90;;;;;;5122109;28;20112;-91
2023/04/02 01:32:21;;;;;;;8.23;1.80;;;7.60;99.90;;;;;;5088099;28;20503;-88
2023/04/02 01:34:48;;;;;;;6.10;1.70;;;7.60;99.90;;;;;;5084630;28;20043;-89
2023/04/02 01:37:15;;;;;;;5.60;2.13;;;7.60;99.90;;;;;;5102601;28;20039;-88
2023/04/02 01:39:42;;;;;;;8.98;1.50;;;7.60;99.90;;;;;;5084300;28;20462;-92
2023/04/02 01:42:09;;;;;;;6.82;2.25;;;7.60;99.90;;;;;;5082849;28;20081;-90
2023/04/02 01:44:36;;;;;;;6.20;1.90;;;7.60;99.90;;;;;;5099853;28;20039;-89
2023/04/02 01:49:35;;;;;;;7.00;1.80;;;7.60;99.90;;;;;;5098923;28;20055;-88
2023/04/02 01:52:01;;;;;;;7.15;2.08;;;7.60;99.90;;;;;;5099667;28;20155;-91
2023/04/02 01:54:31;;;;;;;5.60;2.38;;;7.60;99.90;;;;;;5083443;28;20058;-88
2023/04/02 01:56:58;;;;;;;7.35;2.22;;;7.70;99.90;;;;;;5098613;28;20051;-87
2023/04/02 01:59:25;;;;;;;5.63;2.38;;;7.60;99.90;;;;;;5081929;28;20066;-91
2023/04/02 02:01:57;;;;;;;8.50;3.78;;;7.60;99.90;;;;;;5083325;28;20458;-89
2023/04/02 02:04:24;;;;;;;4.65;1.80;;;7.60;99.90;;;;;;5081315;28;20381;-89
2023/04/02 02:09:57;;;;;;;7.03;2.38;;;7.70;99.90;;;;;;5098718;28;20024;-89
2023/04/02 02:12:24;;;;;;;5.35;2.10;;;7.70;99.90;;;;;;5082276;28;20466;-89
2023/04/02 02:14:51;;;;;;;6.18;2.35;;;7.70;99.90;;;;;;5082125;28;20397;-88
2023/04/02 02:20:09;;;;;;;7.65;2.45;;;7.70;99.90;;;;;;5098756;28;20058;-89
2023/04/02 02:22:37;;;;;;;8.75;2.60;;;7.70;99.90;;;;;;5084636;28;20083;-87
2023/04/02 02:25:04;;;;;;;8.52;2.63;;;7.70;99.90;;;;;;5087687;28;20047;-88
2023/04/02 02:27:32;;;;;;;9.50;2.45;;;7.70;99.90;;;;;;5082099;28;20046;-89
2023/04/02 02:30:06;;;;;;;9.20;2.53;;;7.70;99.90;;;;;;5098893;28;20467;-91
2023/04/02 02:32:33;;;;;;;7.88;2.55;;;7.80;99.90;;;;;;5081875;28;20047;-88
2023/04/02 02:35:00;;;;;;;6.57;2.50;;;7.70;99.90;;;;;;5081991;28;20036;-88
2023/04/02 02:40:15;;;;;;;6.10;3.28;;;7.70;99.90;;;;;;5098007;28;20633;-89
2023/04/02 02:42:42;;;;;;;7.53;2.50;;;7.60;99.90;;;;;;5097588;28;20032;-88
2023/04/02 02:45:10;;;;;;;4.07;1.65;;;7.70;99.90;;;;;;5081860;28;20039;-88
2023/04/02 02:47:39;;;;;;;8.20;2.75;;;7.60;99.90;;;;;;5081975;28;20108;-90
2023/04/02 02:50:09;;;;;;;10.63;2.78;;;7.60;99.90;;;;;;5097752;28;20096;-89
2023/04/02 02:52:36;;;;;;;7.55;2.85;;;7.70;99.90;;;;;;5081481;28;20101;-89
2023/04/02 02:55:09;;;;;;;8.68;2.90;;;7.70;99.90;;;;;;5082678;28;20423;-88
2023/04/02 03:01:26;;;;;;;10.15;2.67;;;7.60;99.90;;;;;;5098130;28;20039;-89
2023/04/02 03:03:53;;;;;;;8.13;2.63;;;7.60;99.90;;;;;;5080888;28;20441;-87
2023/04/02 03:09:26;;;;;;;7.22;2.30;;;7.60;99.90;;;;;;5096939;28;20024;-88
2023/04/02 03:11:52;;;;;;;8.73;3.25;;;7.60;99.90;;;;;;5081474;28;20058;-89
2023/04/02 03:14:22;;;;;;;9.95;3.35;;;7.60;99.90;;;;;;5081811;28;20135;-88
2023/04/02 03:20:05;;;;;;;8.27;2.70;;;7.60;99.90;;;;;;5098010;28;20032;-89
2023/04/02 03:22:36;;;;;;;14.35;3.10;;;7.60;99.90;;;;;;5081507;28;20035;-88
2023/04/02 03:25:03;;;;;;;9.63;3.00;;;7.60;99.90;;;;;;5098067;28;20035;-87
2023/04/02 03:30:20;;;;;;;7.13;1.75;;;7.60;99.90;;;;;;5097050;28;20143;-88
2023/04/02 03:36:11;;;;;;;8.85;2.80;;;7.50;99.90;;;;;;4925757;28;20111;-88
2023/04/02 03:38:39;;;;;;;7.03;2.65;;;7.60;99.90;;;;;;4995007;28;20074;-89
2023/04/02 03:41:06;;;;;;;13.63;2.75;;;7.60;99.90;;;;;;5014564;28;20037;-89
2023/04/02 03:43:34;;;;;;;16.33;3.17;;;7.70;99.90;;;;;;4999199;28;20510;-89
2023/04/02 03:46:01;;;;;;;7.32;2.50;;;7.60;99.90;;;;;;4997527;28;20422;-90
2023/04/02 03:48:28;;;;;;;5.20;2.10;;;7.60;99.90;;;;;;4998902;28;20048;-88
2023/04/02 03:50:55;;;;;;;12.70;2.65;;;7.60;99.90;;;;;;4998916;28;20049;-87
2023/04/02 03:53:22;;;;;;;7.20;2.83;;;7.60;99.90;;;;;;4994142;28;20053;-89
2023/04/02 03:55:48;;;;;;;6.35;2.63;;;7.60;99.90;;;;;;4994512;28;20424;-89
2023/04/02 03:58:16;;;;;;;12.50;3.10;;;7.60;99.90;;;;;;4995126;28;20054;-88
2023/04/02 04:00:43;;;;;;;10.73;2.78;;;7.60;99.90;;;;;;4993658;28;20077;-90
2023/04/02 04:03:11;;;;;;;5.57;2.08;;;7.60;99.90;;;;;;4978339;28;20113;-88
2023/04/02 04:05:38;;;;;;;7.50;2.28;;;7.60;99.90;;;;;;4994572;28;20097;-87
2023/04/02 04:08:08;;;;;;;11.38;2.95;;;7.50;99.90;;;;;;4978657;28;20399;-89
2023/04/02 04:10:35;;;;;;;10.60;3.15;;;7.50;99.90;;;;;;4978394;28;20105;-88
2023/04/02 04:13:03;;;;;;;11.10;2.50;;;7.40;99.90;;;;;;4994030;28;20141;-88
2023/04/02 04:15:30;;;;;;;13.45;2.10;;;7.40;99.90;;;;;;4994451;28;20043;-90
2023/04/02 04:18:00;;;;;;;7.60;2.53;;;7.40;99.90;;;;;;4994536;28;20046;-91
2023/04/02 04:20:32;;;;;;;9.32;2.95;;;7.30;99.90;;;;;;4993722;28;20473;-88
2023/04/02 04:23:00;;;;;;;12.57;2.80;;;7.40;99.90;;;;;;4996379;28;20038;-89
2023/04/02 04:25:32;;;;;;;13.35;3.28;;;7.40;99.90;;;;;;4997062;28;20487;-87
2023/04/02 04:28:06;;;;;;;15.48;2.75;;;7.40;99.90;;;;;;4988769;28;20393;-86
2023/04/02 04:30:41;;;;;;;14.23;2.75;;;7.40;99.90;;;;;;5019299;28;20034;-86
2023/04/02 04:33:09;;;;;;;12.10;2.85;;;7.40;99.90;;;;;;5026606;28;20118;-86
2023/04/02 04:35:36;;;;;;;10.32;3.03;;;7.30;99.90;;;;;;5008519;28;20050;-86
2023/04/02 04:38:09;;;;;;;19.48;3.95;;;7.30;99.90;;;;;;5018290;28;20411;-89
2023/04/02 04:40:35;;;;;;;10.82;2.58;;;7.30;99.90;;;;;;5016334;28;20057;-89
2023/04/02 04:43:09;;;;;;;7.95;2.28;;;7.30;99.90;;;;;;5016930;28;20038;-89
2023/04/02 04:45:36;;;;;;;14.48;2.80;;;7.20;99.90;;;;;;5016874;28;20049;-89
2023/04/02 04:48:03;;;;;;;15.70;2.85;;;7.20;99.90;;;;;;5016695;28;20057;-89
2023/04/02 04:50:30;;;;;;;12.35;2.53;;;7.20;99.90;;;;;;5000860;28;20038;-88
2023/04/02 04:52:58;;;;;;;9.38;2.42;;;7.20;99.90;;;;;;5016114;28;20487;-90
2023/04/02 04:55:25;;;;;;;8.95;2.25;;;7.20;99.90;;;;;;5016791;28;20045;-90
2023/04/02 04:57:52;;;;;;;7.30;2.83;;;7.20;99.90;;;;;;5016615;28;20057;-89
2023/04/02 05:00:19;;;;;;;7.35;2.47;;;7.20;99.90;;;;;;5016069;28;20116;-88
2023/04/02 05:02:47;;;;;;;13.15;2.60;;;7.20;99.90;;;;;;5016969;28;20459;-90
2023/04/02 05:05:14;;;;;;;9.68;2.50;;;7.30;99.90;;;;;;5016669;28;20180;-89
2023/04/02 05:07:41;;;;;;;12.25;2.35;;;7.30;99.90;;;;;;5016144;28;20125;-88
2023/04/02 05:10:09;;;;;;;7.45;1.48;;;7.30;99.90;;;;;;5016639;28;20137;-89
2023/04/02 05:12:38;;;;;;;7.95;2.30;;;7.30;99.90;;;;;;4999787;28;20690;-88
2023/04/02 05:15:08;;;;;;;15.93;2.80;;;7.30;99.90;;;;;;5018756;28;20472;-88
2023/04/02 05:17:35;;;;;;;14.90;3.20;;;7.40;99.90;;;;;;5018885;28;20053;-88
2023/04/02 05:20:08;;;;;;;10.43;2.80;;;7.40;99.90;;;;;;5003190;28;20050;-89
2023/04/02 05:22:37;;;;;;;8.35;2.33;;;7.30;99.90;;;;;;5019830;28;20076;-88
2023/04/02 05:25:07;;;;;;;13.20;3.05;;;7.30;99.90;;;;;;5000169;28;20042;-87
2023/04/02 05:27:35;;;;;;;14.75;3.00;;;7.20;99.90;;;;;;4999280;28;20096;-88
2023/04/02 05:30:07;;;;;;;14.43;2.20;;;7.20;99.90;;;;;;5000774;28;20042;-89
2023/04/02 05:32:34;;;;;;;8.00;2.17;;;7.20;99.90;;;;;;5014951;28;20050;-89
2023/04/02 05:35:05;;;;;;;18.90;2.97;;;7.20;99.90;;;;;;5000014;28;20455;-89
2023/04/02 05:37:35;;;;;;;7.88;2.50;;;7.10;99.90;;;;;;5000697;28;20046;-89
2023/04/02 05:40:05;;;;;;;10.50;2.58;;;7.10;99.90;;;;;;4999206;28;20046;-89
2023/04/02 05:42:36;;;;;;;11.25;2.65;;;7.10;99.90;;;;;;5000554;28;20140;-89
2023/04/02 05:45:08;;;;;;;8.80;2.22;;;7.10;99.90;;;;;;5000334;28;20060;-90
2023/04/02 05:47:39;;;;;;;6.43;2.17;;;7.10;99.90;;;;;;4999297;28;20050;-89
2023/04/02 05:50:17;;;;;;;9.70;1.98;;;7.10;99.90;;;;;;5002509;28;20046;-89
2023/04/02 05:52:47;;;;;;;10.32;1.88;;;7.20;99.90;;;;;;5001318;28;20049;-87
2023/04/02 05:55:15;;;;;;;9.23;2.40;;;7.20;99.90;;;;;;5000401;28;20053;-87
2023/04/02 05:57:45;;;;;;;8.55;1.67;;;7.20;99.90;;;;;;5000130;28;20045;-88
2023/04/02 06:00:13;;;;;;;7.30;2.13;;;7.10;99.90;;;;;;4998325;28;20100;-88
2023/04/02 06:02:40;;;;;;;7.45;2.47;;;7.10;99.90;;;;;;5016668;28;20472;-89
2023/04/02 06:05:11;;;;;;;4.55;1.83;;;7.20;99.90;;;;;;5031697;28;20052;-88
2023/04/02 06:07:43;;;;;;;10.83;2.03;;;7.10;99.90;;;;;;4999844;28;20042;-89
2023/04/02 06:10:11;;;;;;;5.28;1.65;;;7.10;99.90;;;;;;5000653;28;20080;-89
2023/04/02 06:12:39;;;;;;;9.38;2.00;;;7.10;99.90;;;;;;4998809;28;20122;-89
2023/04/02 06:15:08;;;;;;;3.78;1.40;;;7.10;99.90;;;;;;4999231;28;20111;-91
2023/04/02 06:17:36;;;;;;;7.82;1.60;;;7.00;99.90;;;;;;4999220;28;20145;-87
2023/04/02 06:20:04;;;;;;;8.68;1.77;;;7.00;99.90;;;;;;5016350;28;20048;-87
2023/04/02 06:22:31;;;;;;;8.45;2.00;;;7.00;99.90;;;;;;5015214;28;20065;-89
2023/04/02 06:24:58;;;;;;;6.38;2.10;;;6.90;99.90;;;;;;4998726;28;20046;-88
2023/04/02 06:27:35;;;;;;;6.45;1.77;;;7.00;99.90;;;;;;4999724;28;20100;-88
2023/04/02 06:30:08;;;;;;;8.52;1.58;;;7.00;99.90;;;;;;4999245;28;20046;-88
2023/04/02 06:32:38;;;;;;;9.20;1.70;;;7.00;99.90;;;;;;5016031;28;20050;-89
2023/04/02 06:35:27;;;;;;;9.25;3.35;;;7.00;99.90;;;;;;5015730;28;20503;-89
2023/04/02 06:37:59;;;;;;;7.35;2.00;;;6.90;99.90;;;;;;5000690;28;20128;-88
2023/04/02 06:40:29;;;;;;;9.10;1.67;;;6.90;99.90;;;;;;5015167;28;20045;-89
2023/04/02 06:42:58;;;;;;;13.57;2.20;;;6.90;99.90;;;;;;5017180;28;20069;-91
2023/04/02 06:45:37;;;;;;;7.75;2.10;;;7.00;99.90;;;;;;5014673;28;20061;-89
2023/04/02 06:48:16;;;;;;;8.40;1.98;;;7.00;99.90;;;;;;5000889;28;20342;-87
2023/04/02 06:51:15;;;;;;;6.93;1.83;;;7.10;99.90;;;;;;5015503;28;20053;-88
2023/04/02 06:53:54;;;;;;;4.63;1.63;;;7.00;99.90;;;;;;5000041;28;20061;-90
2023/04/02 06:56:35;;;;;;;7.30;1.85;;;7.00;99.90;;;;;;5016612;28;20094;-88
2023/04/02 06:59:54;;;;;;;8.27;1.80;;;7.00;99.90;;;;;;4950011;28;20145;-88
2023/04/02 07:02:24;;;;;;;5.70;2.15;;;7.00;99.90;;;;;;4975001;28;20062;-86
2023/04/02 07:04:51;;;;;;;9.63;2.53;;;7.00;99.90;;;;;;4958787;28;20043;-88
2023/04/02 07:07:19;;;;;;;9.00;1.90;;;7.00;99.90;;;;;;4958098;28;20499;-87
2023/04/02 07:09:48;;;;;;;15.98;2.75;;;7.00;99.90;;;;;;4975575;28;20043;-87
2023/04/02 07:12:14;;;;;;;5.75;1.50;;;7.00;99.90;;;;;;4975006;28;20047;-86
2023/04/02 07:14:42;;;;;;;5.82;1.65;;;7.00;99.90;;;;;;4974155;28;20042;-85
2023/04/02 07:17:10;;;;;;;7.55;1.85;;;7.00;99.90;;;;;;4975093;28;20057;-86
2023/04/02 07:19:37;;;;;;;5.30;1.85;;;7.00;99.90;;;;;;4974160;28;20354;-87
2023/04/02 07:22:04;;;;;;;9.13;1.95;;;6.90;99.90;;;;;;4974469;28;20043;-85
2023/04/02 07:24:36;;;;;;;8.73;1.83;;;6.80;99.90;;;;;;4974572;28;20070;-87
2023/04/02 07:27:06;;;;;;;8.77;2.20;;;6.90;99.90;;;;;;4974076;28;20507;-87
2023/04/02 07:29:33;;;;;;;6.70;1.77;;;6.90;99.90;;;;;;4983747;28;20074;-87
2023/04/02 07:32:00;;;;;;;6.35;1.60;;;6.90;99.90;;;;;;5031113;28;20498;-86
2023/04/02 07:34:26;;;;;;;5.90;1.90;;;6.90;99.90;;;;;;5030025;28;20402;-87
2023/04/02 07:36:53;;;;;;;10.02;2.00;;;7.00;99.90;;;;;;4997993;28;20062;-88
2023/04/02 07:39:20;;;;;;;10.70;2.25;;;7.00;99.90;;;;;;4997304;28;20329;-86
2023/04/02 07:41:48;;;;;;;11.13;2.42;;;7.00;99.90;;;;;;4998384;28;20467;-85
2023/04/02 07:44:15;;;;;;;11.07;2.47;;;7.00;99.90;;;;;;4998389;28;20066;-86
2023/04/02 07:46:45;;;;;;;6.35;1.75;;;6.90;99.90;;;;;;4997711;28;20054;-87
2023/04/02 07:49:15;;;;;;;6.65;1.90;;;6.90;99.90;;;;;;4998308;28;20042;-88
2023/04/02 07:51:44;;;;;;;7.88;1.70;;;6.90;99.90;;;;;;4997027;28;20046;-87
2023/04/02 07:54:20;;;;;;;6.03;2.35;;;6.90;99.90;;;;;;4998311;28;20046;-86
2023/04/02 07:56:51;;;;;;;10.27;3.65;;;6.90;99.90;;;;;;5016238;28;20107;-90
2023/04/02 07:59:22;;;;;;;8.65;1.85;;;6.90;99.90;;;;;;5000829;28;20060;-86
2023/04/02 08:01:55;;;;;;;6.70;2.60;;;6.90;99.90;;;;;;5017505;28;20123;-87
2023/04/02 08:07:13;;;;;;;16.63;2.38;;;7.00;99.90;;;;;;5017489;28;20114;-87
2023/04/02 08:09:40;;;;;;;9.48;1.83;;;7.10;99.90;;;;;;5018215;28;20157;-88
2023/04/02 08:12:16;;;;;;;11.85;2.10;;;7.00;99.90;;;;;;5018395;28;20117;-87
2023/04/02 08:17:39;;;;;;;9.18;2.20;;;7.10;99.90;;;;;;5011929;28;20137;-89
2023/04/02 08:20:06;;;;;;;7.30;1.33;;;7.00;99.90;;;;;;4980270;28;20193;-88
2023/04/02 08:22:33;;;;;;;7.30;2.20;;;7.00;99.90;;;;;;5014515;28;20056;-87
2023/04/02 08:25:07;;;;;;;10.70;1.88;;;7.00;99.90;;;;;;5000805;28;20384;-88
2023/04/02 08:27:34;;;;;;;4.03;1.60;;;7.10;99.90;;;;;;5012421;28;20140;-85
2023/04/02 08:30:01;;;;;;;6.97;1.83;;;7.10;99.90;;;;;;5015933;28;20045;-85
2023/04/02 08:32:27;;;;;;;7.60;2.08;;;7.20;99.90;;;;;;5015132;28;20045;-87
2023/04/02 08:34:55;;;;;;;11.38;2.55;;;7.20;99.90;;;;;;5015679;28;20464;-90
2023/04/02 08:37:22;;;;;;;8.75;2.17;;;7.20;99.90;;;;;;5001489;28;20104;-90
2023/04/02 08:39:48;;;;;;;10.75;2.05;;;7.30;99.90;;;;;;4999603;28;20141;-89
2023/04/02 08:42:25;;;;;;;5.43;1.95;;;7.40;99.90;;;;;;5016097;28;20050;-87
2023/04/02 08:44:55;;;;;;;8.05;1.92;;;7.40;99.90;;;;;;4996413;28;20050;-86
2023/04/02 08:47:28;;;;;;;7.07;1.65;;;7.40;99.90;;;;;;5013633;28;20104;-87
2023/04/02 08:49:55;;;;;;;7.93;1.95;;;7.50;99.90;;;;;;5016859;28;20045;-89
2023/04/02 08:52:22;;;;;;;9.00;2.42;;;7.50;99.90;;;;;;5002902;28;20200;-87
2023/04/02 08:54:48;;;;;;;11.90;1.52;;;7.50;99.90;;;;;;5001576;28;20046;-90
2023/04/02 08:57:15;;;;;;;7.07;1.83;;;7.50;99.90;;;;;;5005058;28;20053;-88
2023/04/02 08:59:42;;;;;;;14.07;2.22;;;7.60;99.90;;;;;;5015521;28;20108;-87
2023/04/02 09:02:09;;;;;;;7.47;1.90;;;7.60;99.90;;;;;;4999776;28;20175;-89
2023/04/02 09:04:36;;;;;;;6.25;1.75;;;7.70;99.90;;;;;;5003428;28;20141;-90
2023/04/02 09:07:02;;;;;;;8.30;2.00;;;7.80;99.90;;;;;;5011462;28;20050;-89
2023/04/02 09:09:29;;;;;;;4.53;1.35;;;7.80;99.90;;;;;;5008391;28;20460;-87
2023/04/02 09:11:59;;;;;;;8.40;1.67;;;8.00;99.90;;;;;;5018190;28;20049;-86
2023/04/02 09:14:27;;;;;;;9.38;1.92;;;8.00;99.90;;;;;;5015155;28;20129;-89
2023/04/02 09:16:54;;;;;;;11.38;2.42;;;8.10;99.90;;;;;;5016085;28;20564;-88
2023/04/02 09:19:21;;;;;;;6.75;1.50;;;8.20;99.90;;;;;;4998948;28;20607;-87
2023/04/02 09:21:50;;;;;;;8.73;2.38;;;8.10;99.90;;;;;;5016617;28;20452;-86
2023/04/02 09:24:20;;;;;;;9.40;1.70;;;8.20;99.90;;;;;;5014914;28;20124;-86
2023/04/02 09:26:47;;;;;;;9.63;2.25;;;8.30;99.90;;;;;;5014989;28;20045;-87
2023/04/02 09:29:17;;;;;;;6.22;1.77;;;8.40;99.90;;;;;;5015237;28;20053;-87
2023/04/02 09:31:44;;;;;;;9.52;1.98;;;8.40;99.90;;;;;;5015893;28;20099;-87
2023/04/02 09:34:14;;;;;;;14.30;1.95;;;8.30;99.90;;;;;;5015113;28;20100;-88
2023/04/02 09:36:40;;;;;;;9.60;2.03;;;8.30;99.90;;;;;;5031664;28;20116;-87
2023/04/02 09:39:10;;;;;;;6.15;1.75;;;8.40;99.90;;;;;;5031109;28;20045;-87
2023/04/02 09:41:37;;;;;;;15.27;2.55;;;8.60;99.90;;;;;;5015419;28;20468;-87
2023/04/02 09:47:40;;;;;;;8.02;2.08;;;9.10;99.90;;;;;;5034974;28;20090;-88
2023/04/02 09:50:14;;;;;;;10.00;2.15;;;9.50;99.90;;;;;;5007316;28;20050;-85
2023/04/02 09:52:43;;;;;;;7.65;2.15;;;9.60;99.90;;;;;;5015756;28;20057;-91
2023/04/02 09:58:49;;;;;;;11.63;2.67;;;9.50;99.90;;;;;;5016690;28;20365;-90
2023/04/02 10:01:39;;;;;;;9.15;2.00;;;9.50;99.90;;;;;;5015519;28;20087;-89
2023/04/02 10:05:15;;;;;;;7.85;2.30;;;9.40;99.90;;;;;;5021311;28;20101;-88
2023/04/02 10:08:05;;;;;;;9.27;2.38;;;9.20;99.90;;;;;;5015129;28;20476;-89
2023/04/02 10:10:40;;;;;;;14.27;2.28;;;9.20;99.90;;;;;;5012942;28;20461;-88
2023/04/02 10:16:31;;;;;;;7.97;2.03;;;9.50;99.90;;;;;;5015911;28;20036;-87
2023/04/02 10:18:58;;;;;;;8.60;2.15;;;9.70;99.90;;;;;;5031440;28;20060;-88
2023/04/02 10:21:26;;;;;;;6.72;1.50;;;9.90;99.90;;;;;;5015492;28;20041;-87
2023/04/02 10:26:41;;;;;;;12.70;2.58;;;10.00;99.90;;;;;;5014234;28;20440;-88
2023/04/02 10:29:08;;;;;;;9.38;1.83;;;10.10;99.90;;;;;;5014708;28;20054;-87
2023/04/02 10:31:34;;;;;;;11.45;1.90;;;9.90;99.90;;;;;;5014822;28;20535;-89
2023/04/02 10:36:47;;;;;;;12.25;2.47;;;9.80;99.90;;;;;;5014432;28;20068;-89
2023/04/02 10:39:17;;;;;;;11.55;2.60;;;9.80;99.90;;;;;;5013939;28;20467;-88
2023/04/02 10:41:55;;;;;;;10.85;2.33;;;9.70;99.90;;;;;;5015469;28;20096;-88
2023/04/02 10:48:06;;;;;;;9.38;2.38;;;9.60;99.90;;;;;;5015256;28;20083;-88
2023/04/02 10:51:06;;;;;;;9.55;2.63;;;9.60;99.90;;;;;;4972390;28;20097;-88
2023/04/02 10:57:14;;;;;;;15.20;2.42;;;9.70;99.90;;;;;;5015750;28;20029;-89
2023/04/02 10:59:51;;;;;;;9.98;2.25;;;9.80;99.90;;;;;;4999435;28;20475;-88
2023/04/02 11:02:18;;;;;;;9.15;2.00;;;9.90;99.90;;;;;;5013739;28;20054;-90
2023/04/02 11:07:56;;;;;;;10.95;2.10;;;10.00;99.90;;;;;;5010568;28;20034;-86
2023/04/02 11:10:23;;;;;;;17.38;1.85;;;10.20;99.90;;;;;;5010969;28;20049;-87
2023/04/02 11:12:49;;;;;;;10.90;1.80;;;10.30;99.90;;;;;;5010301;28;20361;-88
2023/04/02 11:15:16;;;;;;;10.88;2.25;;;10.50;99.90;;;;;;5010725;28;20081;-87
2023/04/02 11:17:54;;;;;;;6.63;1.98;;;10.50;99.90;;;;;;5011006;28;20054;-90
2023/04/02 11:20:26;;;;;;;10.55;2.95;;;10.40;99.90;;;;;;5010018;28;20134;-89
2023/04/02 11:26:05;;;;;;;;;;;10.70;99.90;;;;;;5011397;28;20042;-89
2023/04/02 11:28:36;;;;;;;13.07;2.50;;;10.90;99.90;;;;;;5026576;28;19921;-86
2023/04/02 11:31:12;;;;;;;8.75;1.80;;;10.80;99.90;;;;;;4998576;28;20441;-89
2023/04/02 11:37:09;;;;;;;13.48;2.28;;;10.50;99.90;;;;;;5024502;28;20049;-90
2023/04/02 11:39:48;;;;;;;4.80;1.60;;;10.60;99.90;;;;;;4982824;28;20489;-88
2023/04/02 11:42:21;;;;;;;8.10;2.63;;;10.80;99.90;;;;;;4999635;28;20050;-89
2023/04/02 11:51:24;;;;;;;9.02;1.90;;;12.80;99.90;;;;;;4999413;28;20438;-89
2023/04/02 11:57:34;;;;;;;8.18;2.38;;;12.60;99.90;;;;;;5015806;28;20063;-85
2023/04/02 12:00:05;;;;;;;7.32;1.60;;;12.30;99.90;;;;;;5016706;28;20066;-86
2023/04/02 12:02:37;;;;;;;7.22;2.00;;;12.10;99.90;;;;;;5017459;28;20498;-87
2023/04/02 12:05:06;;;;;;;12.18;2.40;;;12.20;99.90;;;;;;5017188;28;20046;-86
2023/04/02 12:07:45;;;;;;;14.52;2.55;;;12.30;99.90;;;;;;5021692;28;20038;-87
2023/04/02 12:10:14;;;;;;;7.25;1.90;;;12.20;99.90;;;;;;4987897;28;20138;-87
2023/04/02 12:12:49;;;;;;;9.05;2.88;;;12.20;99.90;;;;;;5012529;28;20100;-86
2023/04/02 12:15:23;;;;;;;6.97;1.90;;;12.50;99.90;;;;;;5017692;28;20069;-86
2023/04/02 12:17:51;;;;;;;10.43;2.20;;;12.30;99.90;;;;;;5034067;28;20056;-86
2023/04/02 12:20:19;;;;;;;12.50;2.38;;;11.90;99.90;;;;;;5032764;28;20057;-87
2023/04/02 12:22:46;;;;;;;8.70;1.90;;;12.00;99.90;;;;;;5016913;28;20450;-88
2023/04/02 12:25:12;;;;;;;13.98;2.33;;;12.60;99.90;;;;;;5016486;28;20054;-87
2023/04/02 12:27:41;;;;;;;9.32;2.10;;;13.40;99.90;;;;;;4999468;28;20038;-88
2023/04/02 12:30:08;;;;;;;8.00;1.90;;;14.10;99.90;;;;;;5000436;28;20141;-87
2023/04/02 12:32:35;;;;;;;6.35;2.10;;;14.10;99.90;;;;;;4997699;28;20066;-86
2023/04/02 12:35:01;;;;;;;10.13;2.10;;;14.20;99.90;;;;;;5008476;28;20077;-86
2023/04/02 12:37:28;;;;;;;9.20;2.00;;;13.80;99.90;;;;;;5012952;28;20064;-88
2023/04/02 12:39:55;;;;;;;6.70;2.05;;;13.80;99.90;;;;;;5010353;28;20120;-86
2023/04/02 12:42:24;;;;;;;5.38;1.70;;;13.60;99.90;;;;;;5009099;28;20050;-86
2023/04/02 12:45:17;;;;;;;6.43;1.80;;;13.70;99.90;;;;;;5007295;28;20034;-87
2023/04/02 12:47:45;;;;;;;9.65;2.08;;;14.50;99.90;;;;;;5010648;28;20047;-89
2023/04/02 12:50:15;;;;;;;9.52;1.70;;;15.00;99.90;;;;;;5011430;28;20137;-87
2023/04/02 12:52:41;;;;;;;9.30;2.03;;;15.50;96.10;;;;;;4996243;28;20081;-87
2023/04/02 12:55:08;;;;;;;8.98;2.25;;;15.10;99.20;;;;;;5004400;28;20050;-88
2023/04/02 12:57:35;;;;;;;7.68;2.10;;;15.00;98.00;;;;;;5008101;28;20108;-88
2023/04/02 13:00:05;;;;;;;6.63;1.83;;;15.50;95.50;;;;;;5013443;28;20137;-86
2023/04/02 13:02:32;;;;;;;7.25;1.67;;;15.60;94.40;;;;;;5001830;28;20077;-88
2023/04/02 13:05:02;;;;;;;8.85;2.10;;;15.70;94.50;;;;;;4998620;28;20060;-89
2023/04/02 13:07:28;;;;;;;6.18;1.90;;;15.80;96.40;;;;;;5013520;28;20057;-88
2023/04/02 13:09:55;;;;;;;7.43;2.00;;;16.10;92.80;;;;;;4998154;28;20045;-86
2023/04/02 13:12:23;;;;;;;7.18;2.42;;;16.60;94.20;;;;;;4997387;28;20050;-87
2023/04/02 13:14:50;;;;;;;9.00;2.00;;;16.30;94.10;;;;;;5000528;28;20049;-86
2023/04/02 13:17:17;;;;;;;10.98;2.08;;;16.10;91.60;;;;;;5021514;28;20092;-87
2023/04/02 13:19:43;;;;;;;5.25;1.70;;;16.40;91.60;;;;;;5013478;28;20490;-88
2023/04/02 13:22:10;;;;;;;8.30;2.03;;;16.90;91.60;;;;;;5012804;28;20054;-87
2023/04/02 13:24:42;;;;;;;8.25;2.10;;;17.20;90.00;;;;;;5013282;28;20056;-87
2023/04/02 13:27:15;;;;;;;7.40;1.85;;;17.00;90.60;;;;;;5012638;28;20487;-89
2023/04/02 13:29:47;;;;;;;7.20;1.80;;;15.60;85.40;;;;;;5012855;28;20565;-87
2023/04/02 13:32:17;;;;;;;6.47;2.00;;;14.80;88.10;;;;;;5012202;28;20048;-85
2023/04/02 13:37:51;;;;;;;35.58;4.80;;;16.60;89.90;;;;;;4929056;29;20068;-86
2023/04/02 13:40:36;;;;;;;6.95;1.83;;;16.70;86.20;;;;;;4927930;29;20043;-86
2023/04/02 13:43:21;;;;;;;8.77;2.20;;;17.00;86.90;;;;;;4922658;29;20478;-86
2023/04/02 13:46:00;;;;;;;8.70;1.92;;;16.40;84.80;;;;;;4951569;29;20312;-85
2023/04/02 13:48:27;;;;;;;9.60;2.00;;;16.60;83.70;;;;;;4952255;29;20047;-85
2023/04/02 13:50:54;;;;;;;5.95;1.90;;;15.90;84.70;;;;;;4933928;29;20044;-85
2023/04/02 13:53:23;;;;;;;8.93;2.10;;;15.40;90.30;;;;;;4935512;28;20078;-86
2023/04/02 13:55:53;;;;;;;8.88;2.10;;;16.30;90.10;;;;;;4920529;29;20058;-86
2023/04/02 13:58:20;;;;;;;6.40;1.80;;;17.00;82.40;;;;;;4935850;29;20166;-86
2023/04/02 14:00:47;;;;;;;5.38;1.75;;;17.50;83.70;;;;;;4935926;29;20051;-87
2023/04/02 14:03:13;;;;;;;8.38;1.70;;;17.10;83.10;;;;;;4952416;29;20142;-89
2023/04/02 14:05:40;;;;;;;8.82;1.92;;;15.90;79.80;;;;;;4903804;29;20470;-86
2023/04/02 14:08:07;;;;;;;11.00;2.30;;;15.40;83.50;;;;;;4905819;29;20115;-88
2023/04/02 14:10:34;;;;;;;7.63;1.92;;;15.90;86.00;;;;;;4921196;29;20502;-88
2023/04/02 14:13:01;;;;;;;6.53;1.92;;;16.30;81.20;;;;;;4919302;29;20059;-87
2023/04/02 14:15:28;;;;;;;7.90;1.88;;;16.10;81.30;;;;;;4962022;28;20053;-88
2023/04/02 14:17:54;;;;;;;7.22;1.40;;;16.60;77.50;;;;;;4963121;28;20453;-88
2023/04/02 14:20:21;;;;;;;7.88;2.00;;;17.10;76.60;;;;;;4979810;28;20464;-87
2023/04/02 14:22:48;;;;;;;8.25;2.05;;;17.90;72.80;;;;;;4963139;28;20045;-90
2023/04/02 14:25:15;;;;;;;8.38;2.03;;;18.30;76.60;;;;;;4962807;28;20054;-87
2023/04/02 14:27:42;;;;;;;8.55;2.10;;;18.60;76.90;;;;;;4961887;28;20042;-88
2023/04/02 14:30:08;;;;;;;7.05;1.77;;;18.90;73.70;;;;;;4986081;28;20412;-87
2023/04/02 14:32:35;;;;;;;9.05;2.10;;;17.80;72.70;;;;;;4997571;28;20362;-87
2023/04/02 14:35:02;;;;;;;12.32;2.00;;;17.00;79.00;;;;;;4997783;28;20045;-86
2023/04/02 14:37:29;;;;;;;7.13;1.90;;;16.20;78.50;;;;;;4989247;28;20077;-86
2023/04/02 14:39:56;;;;;;;11.40;2.28;;;15.50;79.70;;;;;;5012735;28;20132;-86
2023/04/02 14:42:23;;;;;;;8.23;1.80;;;15.30;82.00;;;;;;5021550;28;20445;-89